sensor_id;sensor_type;location;lat;lon;timestamp;P1;durP1;ratioP1;P2;durP2;ratioP2
11735;SDS011;5924;51.398;7.088;2023-12-07T00:01:37;109.87;;;35.10;;
11735;SDS011;5924;51.398;7.088;2023-12-07T00:04:03;104.57;;;36.07;;
11735;SDS011;5924;51.398;7.088;2023-12-07T00:06:29;110.03;;;35.07;;
11735;SDS011;5924;51.398;7.088;2023-12-07T00:08:55;115.63;;;36.83;;
11735;SDS011;5924;51.398;7.088;2023-12-07T00:11:23;138.67;;;40.30;;
11735;SDS011;5924;51.398;7.088;2023-12-07T00:13:49;126.00;;;40.40;;
11735;SDS011;5924;51.398;7.088;2023-12-07T00:16:15;131.07;;;38.30;;
11735;SDS011;5924;51.398;7.088;2023-12-07T00:18:41;139.83;;;38.97;;
11735;SDS011;5924;51.398;7.088;2023-12-07T00:21:09;125.60;;;39.70;;
11735;SDS011;5924;51.398;7.088;2023-12-07T00:23:35;128.83;;;36.47;;
11735;SDS011;5924;51.398;7.088;2023-12-07T00:26:03;135.50;;;39.37;;
11735;SDS011;5924;51.398;7.088;2023-12-07T00:28:29;148.57;;;40.50;;
11735;SDS011;5924;51.398;7.088;2023-12-07T00:30:55;152.47;;;38.83;;
11735;SDS011;5924;51.398;7.088;2023-12-07T00:33:21;125.10;;;39.63;;
11735;SDS011;5924;51.398;7.088;2023-12-07T00:35:46;131.53;;;40.90;;
11735;SDS011;5924;51.398;7.088;2023-12-07T00:38:12;118.37;;;39.77;;
11735;SDS011;5924;51.398;7.088;2023-12-07T00:40:38;152.70;;;41.70;;
11735;SDS011;5924;51.398;7.088;2023-12-07T00:43:05;136.03;;;42.80;;
11735;SDS011;5924;51.398;7.088;2023-12-07T00:45:32;144.20;;;42.10;;
11735;SDS011;5924;51.398;7.088;2023-12-07T00:47:57;135.67;;;39.37;;
11735;SDS011;5924;51.398;7.088;2023-12-07T00:50:23;124.23;;;38.40;;
11735;SDS011;5924;51.398;7.088;2023-12-07T00:52:49;133.97;;;41.30;;
11735;SDS011;5924;51.398;7.088;2023-12-07T00:55:14;153.67;;;41.10;;
11735;SDS011;5924;51.398;7.088;2023-12-07T00:57:40;115.40;;;36.60;;
11735;SDS011;5924;51.398;7.088;2023-12-07T01:00:06;127.63;;;37.10;;
11735;SDS011;5924;51.398;7.088;2023-12-07T01:02:33;135.27;;;36.83;;
11735;SDS011;5924;51.398;7.088;2023-12-07T01:04:59;118.40;;;35.00;;
11735;SDS011;5924;51.398;7.088;2023-12-07T01:07:24;106.07;;;35.13;;
11735;SDS011;5924;51.398;7.088;2023-12-07T01:09:50;122.10;;;37.67;;
11735;SDS011;5924;51.398;7.088;2023-12-07T01:12:16;118.50;;;35.57;;
11735;SDS011;5924;51.398;7.088;2023-12-07T01:14:41;121.27;;;36.60;;
11735;SDS011;5924;51.398;7.088;2023-12-07T01:17:07;110.83;;;34.00;;
11735;SDS011;5924;51.398;7.088;2023-12-07T01:19:33;103.87;;;33.90;;
11735;SDS011;5924;51.398;7.088;2023-12-07T01:21:59;108.47;;;33.43;;
11735;SDS011;5924;51.398;7.088;2023-12-07T01:24:25;107.20;;;33.63;;
11735;SDS011;5924;51.398;7.088;2023-12-07T01:26:50;121.67;;;33.80;;
11735;SDS011;5924;51.398;7.088;2023-12-07T01:29:16;126.10;;;35.00;;
11735;SDS011;5924;51.398;7.088;2023-12-07T01:31:43;103.27;;;33.00;;
11735;SDS011;5924;51.398;7.088;2023-12-07T01:34:09;103.67;;;33.93;;
11735;SDS011;5924;51.398;7.088;2023-12-07T01:36:35;106.73;;;33.47;;
11735;SDS011;5924;51.398;7.088;2023-12-07T01:39:00;111.73;;;33.27;;
11735;SDS011;5924;51.398;7.088;2023-12-07T01:41:26;85.77;;;31.30;;
11735;SDS011;5924;51.398;7.088;2023-12-07T01:43:52;91.63;;;29.37;;
11735;SDS011;5924;51.398;7.088;2023-12-07T01:46:18;92.37;;;31.90;;
11735;SDS011;5924;51.398;7.088;2023-12-07T01:48:44;100.70;;;31.63;;
11735;SDS011;5924;51.398;7.088;2023-12-07T01:51:13;94.77;;;30.23;;
11735;SDS011;5924;51.398;7.088;2023-12-07T01:53:39;102.77;;;30.73;;
11735;SDS011;5924;51.398;7.088;2023-12-07T01:56:05;91.47;;;31.60;;
11735;SDS011;5924;51.398;7.088;2023-12-07T01:58:32;75.77;;;26.83;;
11735;SDS011;5924;51.398;7.088;2023-12-07T02:00:58;86.03;;;28.80;;
11735;SDS011;5924;51.398;7.088;2023-12-07T02:03:24;87.60;;;29.80;;
11735;SDS011;5924;51.398;7.088;2023-12-07T02:05:52;80.87;;;28.20;;
11735;SDS011;5924;51.398;7.088;2023-12-07T02:08:18;83.20;;;28.17;;
11735;SDS011;5924;51.398;7.088;2023-12-07T02:10:44;95.90;;;29.97;;
11735;SDS011;5924;51.398;7.088;2023-12-07T02:13:10;95.77;;;29.60;;
11735;SDS011;5924;51.398;7.088;2023-12-07T02:15:36;95.27;;;31.30;;
11735;SDS011;5924;51.398;7.088;2023-12-07T02:20:54;64.13;;;25.07;;
11735;SDS011;5924;51.398;7.088;2023-12-07T02:23:32;78.20;;;26.93;;
11735;SDS011;5924;51.398;7.088;2023-12-07T02:25:59;66.80;;;25.43;;
11735;SDS011;5924;51.398;7.088;2023-12-07T02:28:28;68.43;;;24.20;;
11735;SDS011;5924;51.398;7.088;2023-12-07T02:30:54;65.30;;;26.20;;
11735;SDS011;5924;51.398;7.088;2023-12-07T02:33:19;86.43;;;28.63;;
11735;SDS011;5924;51.398;7.088;2023-12-07T02:35:45;78.13;;;26.07;;
11735;SDS011;5924;51.398;7.088;2023-12-07T02:38:11;62.43;;;23.67;;
11735;SDS011;5924;51.398;7.088;2023-12-07T02:40:37;69.07;;;25.20;;
11735;SDS011;5924;51.398;7.088;2023-12-07T02:43:05;87.67;;;27.00;;
11735;SDS011;5924;51.398;7.088;2023-12-07T02:45:32;81.53;;;26.63;;
11735;SDS011;5924;51.398;7.088;2023-12-07T02:47:59;86.23;;;27.10;;
11735;SDS011;5924;51.398;7.088;2023-12-07T02:50:24;100.70;;;28.37;;
11735;SDS011;5924;51.398;7.088;2023-12-07T02:52:50;119.70;;;30.00;;
11735;SDS011;5924;51.398;7.088;2023-12-07T02:55:16;74.47;;;25.07;;
11735;SDS011;5924;51.398;7.088;2023-12-07T02:57:42;97.23;;;24.33;;
11735;SDS011;5924;51.398;7.088;2023-12-07T03:00:08;97.33;;;27.60;;
11735;SDS011;5924;51.398;7.088;2023-12-07T03:02:38;105.37;;;28.10;;
11735;SDS011;5924;51.398;7.088;2023-12-07T03:05:04;94.40;;;27.37;;
11735;SDS011;5924;51.398;7.088;2023-12-07T03:07:31;104.07;;;26.23;;
11735;SDS011;5924;51.398;7.088;2023-12-07T03:09:57;87.60;;;25.90;;
11735;SDS011;5924;51.398;7.088;2023-12-07T03:12:23;109.33;;;24.93;;
11735;SDS011;5924;51.398;7.088;2023-12-07T03:14:49;87.53;;;23.90;;
11735;SDS011;5924;51.398;7.088;2023-12-07T03:17:15;118.83;;;29.03;;
11735;SDS011;5924;51.398;7.088;2023-12-07T03:19:41;105.00;;;27.60;;
11735;SDS011;5924;51.398;7.088;2023-12-07T03:22:06;92.20;;;25.07;;
11735;SDS011;5924;51.398;7.088;2023-12-07T03:24:37;93.53;;;23.97;;
11735;SDS011;5924;51.398;7.088;2023-12-07T03:27:03;94.37;;;26.70;;
11735;SDS011;5924;51.398;7.088;2023-12-07T03:29:29;85.93;;;24.57;;
11735;SDS011;5924;51.398;7.088;2023-12-07T03:31:55;87.37;;;23.33;;
11735;SDS011;5924;51.398;7.088;2023-12-07T03:34:21;103.57;;;25.57;;
11735;SDS011;5924;51.398;7.088;2023-12-07T03:36:46;91.57;;;23.27;;
11735;SDS011;5924;51.398;7.088;2023-12-07T03:39:16;91.43;;;25.30;;
11735;SDS011;5924;51.398;7.088;2023-12-07T03:41:47;98.70;;;25.00;;
11735;SDS011;5924;51.398;7.088;2023-12-07T03:44:14;122.73;;;28.37;;
11735;SDS011;5924;51.398;7.088;2023-12-07T03:46:39;106.03;;;26.87;;
11735;SDS011;5924;51.398;7.088;2023-12-07T03:49:05;106.93;;;26.40;;
11735;SDS011;5924;51.398;7.088;2023-12-07T03:51:31;116.43;;;27.33;;
11735;SDS011;5924;51.398;7.088;2023-12-07T03:53:57;113.37;;;27.43;;
11735;SDS011;5924;51.398;7.088;2023-12-07T03:56:26;90.13;;;25.57;;
11735;SDS011;5924;51.398;7.088;2023-12-07T03:58:53;107.10;;;25.50;;
11735;SDS011;5924;51.398;7.088;2023-12-07T04:01:26;108.13;;;26.40;;
11735;SDS011;5924;51.398;7.088;2023-12-07T04:03:54;104.00;;;27.83;;
11735;SDS011;5924;51.398;7.088;2023-12-07T04:06:20;105.60;;;27.90;;
11735;SDS011;5924;51.398;7.088;2023-12-07T04:08:47;95.63;;;25.10;;
11735;SDS011;5924;51.398;7.088;2023-12-07T04:11:13;98.87;;;24.40;;
11735;SDS011;5924;51.398;7.088;2023-12-07T04:13:39;93.67;;;23.90;;
11735;SDS011;5924;51.398;7.088;2023-12-07T04:16:06;87.17;;;23.80;;
11735;SDS011;5924;51.398;7.088;2023-12-07T04:18:32;91.20;;;22.60;;
11735;SDS011;5924;51.398;7.088;2023-12-07T04:20:58;104.87;;;26.83;;
11735;SDS011;5924;51.398;7.088;2023-12-07T04:23:23;86.10;;;24.63;;
11735;SDS011;5924;51.398;7.088;2023-12-07T04:25:49;96.70;;;24.53;;
11735;SDS011;5924;51.398;7.088;2023-12-07T04:28:15;89.10;;;24.70;;
11735;SDS011;5924;51.398;7.088;2023-12-07T04:30:41;87.53;;;24.70;;
11735;SDS011;5924;51.398;7.088;2023-12-07T04:33:06;101.83;;;28.40;;
11735;SDS011;5924;51.398;7.088;2023-12-07T04:35:32;80.80;;;24.13;;
11735;SDS011;5924;51.398;7.088;2023-12-07T04:37:57;84.50;;;23.00;;
11735;SDS011;5924;51.398;7.088;2023-12-07T04:40:26;94.00;;;23.83;;
11735;SDS011;5924;51.398;7.088;2023-12-07T04:42:52;91.97;;;27.40;;
11735;SDS011;5924;51.398;7.088;2023-12-07T04:45:17;96.53;;;24.53;;
11735;SDS011;5924;51.398;7.088;2023-12-07T04:47:43;70.20;;;21.53;;
11735;SDS011;5924;51.398;7.088;2023-12-07T04:50:09;79.07;;;23.13;;
11735;SDS011;5924;51.398;7.088;2023-12-07T04:52:35;91.73;;;25.23;;
11735;SDS011;5924;51.398;7.088;2023-12-07T04:55:01;87.17;;;24.30;;
11735;SDS011;5924;51.398;7.088;2023-12-07T04:57:27;77.33;;;22.73;;
11735;SDS011;5924;51.398;7.088;2023-12-07T04:59:53;67.10;;;21.57;;
11735;SDS011;5924;51.398;7.088;2023-12-07T05:02:19;73.40;;;20.57;;
11735;SDS011;5924;51.398;7.088;2023-12-07T05:04:45;68.33;;;19.33;;
11735;SDS011;5924;51.398;7.088;2023-12-07T05:07:11;74.13;;;20.37;;
11735;SDS011;5924;51.398;7.088;2023-12-07T05:09:38;66.17;;;19.93;;
11735;SDS011;5924;51.398;7.088;2023-12-07T05:12:04;51.03;;;17.33;;
11735;SDS011;5924;51.398;7.088;2023-12-07T05:14:32;60.80;;;18.73;;
11735;SDS011;5924;51.398;7.088;2023-12-07T05:16:59;70.43;;;20.67;;
11735;SDS011;5924;51.398;7.088;2023-12-07T05:19:25;65.03;;;20.37;;
11735;SDS011;5924;51.398;7.088;2023-12-07T05:21:51;55.27;;;18.80;;
11735;SDS011;5924;51.398;7.088;2023-12-07T05:24:17;81.17;;;20.43;;
11735;SDS011;5924;51.398;7.088;2023-12-07T05:26:44;69.40;;;19.77;;
11735;SDS011;5924;51.398;7.088;2023-12-07T05:29:13;47.97;;;17.40;;
11735;SDS011;5924;51.398;7.088;2023-12-07T05:31:39;52.07;;;18.37;;
11735;SDS011;5924;51.398;7.088;2023-12-07T05:34:06;73.07;;;19.00;;
11735;SDS011;5924;51.398;7.088;2023-12-07T05:36:32;61.07;;;20.07;;
11735;SDS011;5924;51.398;7.088;2023-12-07T05:38:58;73.47;;;20.57;;
11735;SDS011;5924;51.398;7.088;2023-12-07T05:41:23;54.63;;;16.63;;
11735;SDS011;5924;51.398;7.088;2023-12-07T05:43:50;61.33;;;18.53;;
11735;SDS011;5924;51.398;7.088;2023-12-07T05:46:16;52.27;;;17.80;;
11735;SDS011;5924;51.398;7.088;2023-12-07T05:48:42;48.27;;;17.13;;
11735;SDS011;5924;51.398;7.088;2023-12-07T05:51:14;76.33;;;20.37;;
11735;SDS011;5924;51.398;7.088;2023-12-07T05:53:41;48.40;;;17.40;;
11735;SDS011;5924;51.398;7.088;2023-12-07T05:56:07;76.03;;;22.53;;
11735;SDS011;5924;51.398;7.088;2023-12-07T05:58:33;71.03;;;21.97;;
11735;SDS011;5924;51.398;7.088;2023-12-07T06:00:59;71.93;;;22.13;;
11735;SDS011;5924;51.398;7.088;2023-12-07T06:03:26;67.27;;;20.90;;
11735;SDS011;5924;51.398;7.088;2023-12-07T06:05:52;72.27;;;21.70;;
11735;SDS011;5924;51.398;7.088;2023-12-07T06:08:18;67.33;;;22.73;;
11735;SDS011;5924;51.398;7.088;2023-12-07T06:10:44;66.43;;;22.20;;
11735;SDS011;5924;51.398;7.088;2023-12-07T06:13:10;60.07;;;21.53;;
11735;SDS011;5924;51.398;7.088;2023-12-07T06:15:36;68.70;;;23.80;;
11735;SDS011;5924;51.398;7.088;2023-12-07T06:18:01;74.90;;;26.07;;
11735;SDS011;5924;51.398;7.088;2023-12-07T06:20:28;77.77;;;25.13;;
11735;SDS011;5924;51.398;7.088;2023-12-07T06:22:54;82.17;;;21.67;;
11735;SDS011;5924;51.398;7.088;2023-12-07T06:25:19;72.20;;;22.10;;
11735;SDS011;5924;51.398;7.088;2023-12-07T06:27:45;64.20;;;22.20;;
11735;SDS011;5924;51.398;7.088;2023-12-07T06:30:11;71.07;;;21.83;;
11735;SDS011;5924;51.398;7.088;2023-12-07T06:32:37;59.10;;;22.00;;
11735;SDS011;5924;51.398;7.088;2023-12-07T06:35:03;61.97;;;22.20;;
11735;SDS011;5924;51.398;7.088;2023-12-07T06:37:32;67.07;;;20.90;;
11735;SDS011;5924;51.398;7.088;2023-12-07T06:39:58;68.73;;;21.00;;
11735;SDS011;5924;51.398;7.088;2023-12-07T06:42:26;64.20;;;22.70;;
11735;SDS011;5924;51.398;7.088;2023-12-07T06:44:52;79.80;;;22.53;;
11735;SDS011;5924;51.398;7.088;2023-12-07T06:47:18;68.97;;;25.10;;
11735;SDS011;5924;51.398;7.088;2023-12-07T06:49:44;74.70;;;23.27;;
11735;SDS011;5924;51.398;7.088;2023-12-07T06:52:10;90.47;;;26.30;;
11735;SDS011;5924;51.398;7.088;2023-12-07T06:54:36;84.97;;;25.50;;
11735;SDS011;5924;51.398;7.088;2023-12-07T06:57:03;71.87;;;26.43;;
11735;SDS011;5924;51.398;7.088;2023-12-07T06:59:29;78.83;;;24.03;;
11735;SDS011;5924;51.398;7.088;2023-12-07T07:01:55;86.30;;;25.67;;
11735;SDS011;5924;51.398;7.088;2023-12-07T07:04:21;69.80;;;23.17;;
11735;SDS011;5924;51.398;7.088;2023-12-07T07:06:46;65.50;;;22.17;;
11735;SDS011;5924;51.398;7.088;2023-12-07T07:09:12;71.20;;;24.33;;
11735;SDS011;5924;51.398;7.088;2023-12-07T07:11:38;67.00;;;23.70;;
11735;SDS011;5924;51.398;7.088;2023-12-07T07:14:03;68.53;;;23.03;;
11735;SDS011;5924;51.398;7.088;2023-12-07T07:16:29;72.57;;;23.87;;
11735;SDS011;5924;51.398;7.088;2023-12-07T07:18:55;94.00;;;27.30;;
11735;SDS011;5924;51.398;7.088;2023-12-07T07:21:21;62.30;;;21.37;;
11735;SDS011;5924;51.398;7.088;2023-12-07T07:23:47;79.87;;;23.10;;
11735;SDS011;5924;51.398;7.088;2023-12-07T07:26:13;60.40;;;22.43;;
11735;SDS011;5924;51.398;7.088;2023-12-07T07:28:42;63.37;;;23.13;;
11735;SDS011;5924;51.398;7.088;2023-12-07T07:31:08;62.70;;;22.83;;
11735;SDS011;5924;51.398;7.088;2023-12-07T07:33:34;66.87;;;22.53;;
11735;SDS011;5924;51.398;7.088;2023-12-07T07:35:59;64.30;;;21.53;;
11735;SDS011;5924;51.398;7.088;2023-12-07T07:38:25;64.40;;;21.70;;
11735;SDS011;5924;51.398;7.088;2023-12-07T07:40:51;55.63;;;20.60;;
11735;SDS011;5924;51.398;7.088;2023-12-07T07:43:17;81.17;;;24.03;;
11735;SDS011;5924;51.398;7.088;2023-12-07T07:45:43;100.30;;;26.00;;
11735;SDS011;5924;51.398;7.088;2023-12-07T07:48:09;81.27;;;23.67;;
11735;SDS011;5924;51.398;7.088;2023-12-07T07:50:34;74.30;;;24.07;;
11735;SDS011;5924;51.398;7.088;2023-12-07T07:53:01;84.23;;;24.87;;
11735;SDS011;5924;51.398;7.088;2023-12-07T07:55:28;81.47;;;25.20;;
11735;SDS011;5924;51.398;7.088;2023-12-07T07:57:54;76.00;;;25.80;;
11735;SDS011;5924;51.398;7.088;2023-12-07T08:00:20;86.93;;;25.60;;
11735;SDS011;5924;51.398;7.088;2023-12-07T08:02:46;85.43;;;24.90;;
11735;SDS011;5924;51.398;7.088;2023-12-07T08:05:11;74.13;;;24.23;;
11735;SDS011;5924;51.398;7.088;2023-12-07T08:07:39;74.60;;;24.10;;
11735;SDS011;5924;51.398;7.088;2023-12-07T08:10:05;65.67;;;23.67;;
11735;SDS011;5924;51.398;7.088;2023-12-07T08:12:32;69.67;;;24.03;;
11735;SDS011;5924;51.398;7.088;2023-12-07T08:14:58;64.90;;;21.53;;
11735;SDS011;5924;51.398;7.088;2023-12-07T08:17:24;74.17;;;22.30;;
11735;SDS011;5924;51.398;7.088;2023-12-07T08:19:51;73.70;;;22.57;;
11735;SDS011;5924;51.398;7.088;2023-12-07T08:22:17;84.23;;;22.37;;
11735;SDS011;5924;51.398;7.088;2023-12-07T08:24:43;67.47;;;21.70;;
11735;SDS011;5924;51.398;7.088;2023-12-07T08:27:08;65.83;;;22.83;;
11735;SDS011;5924;51.398;7.088;2023-12-07T08:29:34;76.10;;;23.90;;
11735;SDS011;5924;51.398;7.088;2023-12-07T08:32:01;69.33;;;22.40;;
11735;SDS011;5924;51.398;7.088;2023-12-07T08:34:27;62.80;;;20.33;;
11735;SDS011;5924;51.398;7.088;2023-12-07T08:36:54;63.30;;;23.23;;
11735;SDS011;5924;51.398;7.088;2023-12-07T08:39:20;75.70;;;23.10;;
11735;SDS011;5924;51.398;7.088;2023-12-07T08:41:46;62.47;;;22.33;;
11735;SDS011;5924;51.398;7.088;2023-12-07T08:44:11;68.60;;;22.83;;
11735;SDS011;5924;51.398;7.088;2023-12-07T08:46:37;65.23;;;22.70;;
11735;SDS011;5924;51.398;7.088;2023-12-07T08:49:03;79.53;;;23.20;;
11735;SDS011;5924;51.398;7.088;2023-12-07T08:51:29;68.00;;;22.13;;
11735;SDS011;5924;51.398;7.088;2023-12-07T08:53:55;73.97;;;22.67;;
11735;SDS011;5924;51.398;7.088;2023-12-07T08:56:20;92.07;;;25.03;;
11735;SDS011;5924;51.398;7.088;2023-12-07T08:58:46;71.53;;;24.83;;
11735;SDS011;5924;51.398;7.088;2023-12-07T09:01:12;76.83;;;23.83;;
11735;SDS011;5924;51.398;7.088;2023-12-07T09:03:37;92.40;;;25.77;;
11735;SDS011;5924;51.398;7.088;2023-12-07T09:06:03;89.50;;;24.13;;
11735;SDS011;5924;51.398;7.088;2023-12-07T09:08:30;90.87;;;25.10;;
11735;SDS011;5924;51.398;7.088;2023-12-07T09:10:56;82.33;;;23.80;;
11735;SDS011;5924;51.398;7.088;2023-12-07T09:13:21;81.90;;;25.30;;
11735;SDS011;5924;51.398;7.088;2023-12-07T09:15:47;85.63;;;25.37;;
11735;SDS011;5924;51.398;7.088;2023-12-07T09:18:12;67.17;;;22.50;;
11735;SDS011;5924;51.398;7.088;2023-12-07T09:20:41;77.67;;;24.50;;
11735;SDS011;5924;51.398;7.088;2023-12-07T09:23:13;70.37;;;24.83;;
11735;SDS011;5924;51.398;7.088;2023-12-07T09:25:40;82.63;;;24.60;;
11735;SDS011;5924;51.398;7.088;2023-12-07T09:28:06;82.43;;;24.17;;
11735;SDS011;5924;51.398;7.088;2023-12-07T09:30:31;71.03;;;23.07;;
11735;SDS011;5924;51.398;7.088;2023-12-07T09:32:58;62.30;;;21.80;;
11735;SDS011;5924;51.398;7.088;2023-12-07T09:35:24;61.80;;;21.90;;
11735;SDS011;5924;51.398;7.088;2023-12-07T09:37:50;57.67;;;19.90;;
11735;SDS011;5924;51.398;7.088;2023-12-07T09:40:16;62.50;;;21.60;;
11735;SDS011;5924;51.398;7.088;2023-12-07T09:42:43;64.83;;;21.80;;
11735;SDS011;5924;51.398;7.088;2023-12-07T09:45:09;62.97;;;22.23;;
11735;SDS011;5924;51.398;7.088;2023-12-07T09:47:35;69.87;;;22.80;;
11735;SDS011;5924;51.398;7.088;2023-12-07T09:50:04;58.13;;;20.67;;
11735;SDS011;5924;51.398;7.088;2023-12-07T09:52:32;64.20;;;22.63;;
11735;SDS011;5924;51.398;7.088;2023-12-07T09:54:57;56.83;;;21.37;;
11735;SDS011;5924;51.398;7.088;2023-12-07T09:57:25;58.93;;;20.70;;
11735;SDS011;5924;51.398;7.088;2023-12-07T09:59:51;57.63;;;21.03;;
11735;SDS011;5924;51.398;7.088;2023-12-07T10:02:17;64.57;;;21.53;;
11735;SDS011;5924;51.398;7.088;2023-12-07T10:04:43;65.20;;;22.00;;
11735;SDS011;5924;51.398;7.088;2023-12-07T10:07:08;53.13;;;20.93;;
11735;SDS011;5924;51.398;7.088;2023-12-07T10:09:38;53.20;;;19.23;;
11735;SDS011;5924;51.398;7.088;2023-12-07T10:12:07;55.53;;;19.97;;
11735;SDS011;5924;51.398;7.088;2023-12-07T10:14:33;53.00;;;20.10;;
11735;SDS011;5924;51.398;7.088;2023-12-07T10:16:59;57.30;;;21.70;;
11735;SDS011;5924;51.398;7.088;2023-12-07T10:19:25;41.80;;;19.73;;
11735;SDS011;5924;51.398;7.088;2023-12-07T10:21:52;54.17;;;19.50;;
11735;SDS011;5924;51.398;7.088;2023-12-07T10:24:22;40.87;;;19.97;;
11735;SDS011;5924;51.398;7.088;2023-12-07T10:26:51;44.47;;;19.30;;
11735;SDS011;5924;51.398;7.088;2023-12-07T10:29:17;47.03;;;19.37;;
11735;SDS011;5924;51.398;7.088;2023-12-07T10:31:44;48.00;;;19.17;;
11735;SDS011;5924;51.398;7.088;2023-12-07T10:34:11;50.60;;;19.60;;
11735;SDS011;5924;51.398;7.088;2023-12-07T10:36:37;52.70;;;19.00;;
11735;SDS011;5924;51.398;7.088;2023-12-07T10:39:03;48.80;;;18.03;;
11735;SDS011;5924;51.398;7.088;2023-12-07T10:41:31;35.70;;;17.50;;
11735;SDS011;5924;51.398;7.088;2023-12-07T10:43:59;39.53;;;17.20;;
11735;SDS011;5924;51.398;7.088;2023-12-07T10:46:26;47.93;;;19.87;;
11735;SDS011;5924;51.398;7.088;2023-12-07T10:49:03;36.00;;;17.13;;
11735;SDS011;5924;51.398;7.088;2023-12-07T10:51:50;42.00;;;18.00;;
11735;SDS011;5924;51.398;7.088;2023-12-07T10:54:22;39.77;;;18.07;;
11735;SDS011;5924;51.398;7.088;2023-12-07T10:56:51;36.57;;;15.90;;
11735;SDS011;5924;51.398;7.088;2023-12-07T10:59:17;35.47;;;17.53;;
11735;SDS011;5924;51.398;7.088;2023-12-07T11:01:44;31.73;;;16.60;;
11735;SDS011;5924;51.398;7.088;2023-12-07T11:04:12;35.23;;;16.50;;
11735;SDS011;5924;51.398;7.088;2023-12-07T11:06:42;31.47;;;15.97;;
11735;SDS011;5924;51.398;7.088;2023-12-07T11:09:17;36.20;;;15.80;;
11735;SDS011;5924;51.398;7.088;2023-12-07T11:11:51;26.50;;;14.20;;
11735;SDS011;5924;51.398;7.088;2023-12-07T11:14:24;22.63;;;14.40;;
11735;SDS011;5924;51.398;7.088;2023-12-07T11:16:50;30.43;;;14.60;;
11735;SDS011;5924;51.398;7.088;2023-12-07T11:22:01;27.90;;;13.70;;
11735;SDS011;5924;51.398;7.088;2023-12-07T11:24:29;28.63;;;14.50;;
11735;SDS011;5924;51.398;7.088;2023-12-07T11:26:55;23.80;;;14.57;;
11735;SDS011;5924;51.398;7.088;2023-12-07T11:29:21;19.47;;;12.57;;
11735;SDS011;5924;51.398;7.088;2023-12-07T11:31:51;18.60;;;12.60;;
11735;SDS011;5924;51.398;7.088;2023-12-07T11:34:35;17.03;;;11.40;;
11735;SDS011;5924;51.398;7.088;2023-12-07T11:37:03;18.20;;;11.00;;
11735;SDS011;5924;51.398;7.088;2023-12-07T11:39:29;14.53;;;11.20;;
11735;SDS011;5924;51.398;7.088;2023-12-07T11:42:05;12.77;;;9.90;;
11735;SDS011;5924;51.398;7.088;2023-12-07T11:44:33;13.10;;;10.40;;
11735;SDS011;5924;51.398;7.088;2023-12-07T11:47:02;16.83;;;11.63;;
11735;SDS011;5924;51.398;7.088;2023-12-07T11:49:29;17.33;;;12.67;;
11735;SDS011;5924;51.398;7.088;2023-12-07T11:51:56;18.83;;;11.53;;
11735;SDS011;5924;51.398;7.088;2023-12-07T11:54:22;16.87;;;11.73;;
11735;SDS011;5924;51.398;7.088;2023-12-07T11:56:57;17.40;;;10.77;;
11735;SDS011;5924;51.398;7.088;2023-12-07T11:59:23;20.50;;;12.47;;
11735;SDS011;5924;51.398;7.088;2023-12-07T12:01:52;16.37;;;11.33;;
11735;SDS011;5924;51.398;7.088;2023-12-07T12:04:18;24.17;;;11.13;;
11735;SDS011;5924;51.398;7.088;2023-12-07T12:06:44;14.17;;;10.53;;
11735;SDS011;5924;51.398;7.088;2023-12-07T12:09:16;15.77;;;10.80;;
11735;SDS011;5924;51.398;7.088;2023-12-07T12:11:45;17.10;;;10.70;;
11735;SDS011;5924;51.398;7.088;2023-12-07T12:14:12;13.63;;;10.30;;
11735;SDS011;5924;51.398;7.088;2023-12-07T12:16:42;16.63;;;11.13;;
11735;SDS011;5924;51.398;7.088;2023-12-07T12:19:08;14.17;;;10.53;;
11735;SDS011;5924;51.398;7.088;2023-12-07T12:21:38;14.63;;;10.03;;
11735;SDS011;5924;51.398;7.088;2023-12-07T12:24:06;13.03;;;9.93;;
11735;SDS011;5924;51.398;7.088;2023-12-07T12:26:34;17.07;;;10.37;;
11735;SDS011;5924;51.398;7.088;2023-12-07T12:29:02;13.67;;;10.67;;
11735;SDS011;5924;51.398;7.088;2023-12-07T12:31:28;23.97;;;13.60;;
11735;SDS011;5924;51.398;7.088;2023-12-07T12:33:54;15.80;;;12.63;;
11735;SDS011;5924;51.398;7.088;2023-12-07T12:36:20;18.03;;;11.50;;
11735;SDS011;5924;51.398;7.088;2023-12-07T12:38:52;14.17;;;10.40;;
11735;SDS011;5924;51.398;7.088;2023-12-07T12:41:21;14.30;;;11.67;;
11735;SDS011;5924;51.398;7.088;2023-12-07T12:43:47;13.67;;;9.83;;
11735;SDS011;5924;51.398;7.088;2023-12-07T12:46:14;16.70;;;10.60;;
11735;SDS011;5924;51.398;7.088;2023-12-07T12:48:57;11.57;;;9.70;;
11735;SDS011;5924;51.398;7.088;2023-12-07T12:51:25;16.80;;;10.57;;
11735;SDS011;5924;51.398;7.088;2023-12-07T12:53:52;16.23;;;10.50;;
11735;SDS011;5924;51.398;7.088;2023-12-07T12:56:19;18.07;;;10.60;;
11735;SDS011;5924;51.398;7.088;2023-12-07T12:58:46;14.47;;;10.07;;
11735;SDS011;5924;51.398;7.088;2023-12-07T13:01:14;12.37;;;9.90;;
11735;SDS011;5924;51.398;7.088;2023-12-07T13:03:42;12.60;;;10.40;;
11735;SDS011;5924;51.398;7.088;2023-12-07T13:06:11;13.97;;;10.80;;
11735;SDS011;5924;51.398;7.088;2023-12-07T13:08:37;13.07;;;9.90;;
11735;SDS011;5924;51.398;7.088;2023-12-07T13:11:02;18.03;;;10.03;;
11735;SDS011;5924;51.398;7.088;2023-12-07T13:13:28;12.83;;;8.80;;
11735;SDS011;5924;51.398;7.088;2023-12-07T13:15:54;9.23;;;8.17;;
11735;SDS011;5924;51.398;7.088;2023-12-07T13:18:20;11.07;;;8.67;;
11735;SDS011;5924;51.398;7.088;2023-12-07T13:20:46;12.87;;;8.70;;
11735;SDS011;5924;51.398;7.088;2023-12-07T13:23:11;17.63;;;9.53;;
11735;SDS011;5924;51.398;7.088;2023-12-07T13:25:37;12.20;;;9.10;;
11735;SDS011;5924;51.398;7.088;2023-12-07T13:28:02;11.20;;;8.73;;
11735;SDS011;5924;51.398;7.088;2023-12-07T13:30:29;8.87;;;7.97;;
11735;SDS011;5924;51.398;7.088;2023-12-07T13:32:58;13.53;;;8.50;;
11735;SDS011;5924;51.398;7.088;2023-12-07T13:35:24;14.47;;;10.80;;
11735;SDS011;5924;51.398;7.088;2023-12-07T13:37:50;15.10;;;10.60;;
11735;SDS011;5924;51.398;7.088;2023-12-07T13:40:15;26.50;;;14.93;;
11735;SDS011;5924;51.398;7.088;2023-12-07T13:42:42;22.53;;;12.53;;
11735;SDS011;5924;51.398;7.088;2023-12-07T13:45:07;15.37;;;10.27;;
11735;SDS011;5924;51.398;7.088;2023-12-07T13:47:33;25.87;;;14.40;;
11735;SDS011;5924;51.398;7.088;2023-12-07T13:50:02;25.60;;;14.80;;
11735;SDS011;5924;51.398;7.088;2023-12-07T13:52:29;16.53;;;12.17;;
11735;SDS011;5924;51.398;7.088;2023-12-07T13:54:56;14.40;;;11.00;;
11735;SDS011;5924;51.398;7.088;2023-12-07T13:57:23;13.93;;;10.10;;
11735;SDS011;5924;51.398;7.088;2023-12-07T13:59:52;9.20;;;8.27;;
11735;SDS011;5924;51.398;7.088;2023-12-07T14:02:18;8.63;;;7.77;;
11735;SDS011;5924;51.398;7.088;2023-12-07T14:04:44;10.53;;;7.20;;
11735;SDS011;5924;51.398;7.088;2023-12-07T14:07:11;13.67;;;8.53;;
11735;SDS011;5924;51.398;7.088;2023-12-07T14:09:41;8.10;;;7.40;;
11735;SDS011;5924;51.398;7.088;2023-12-07T14:12:08;12.40;;;7.70;;
11735;SDS011;5924;51.398;7.088;2023-12-07T14:14:37;7.93;;;7.20;;
11735;SDS011;5924;51.398;7.088;2023-12-07T14:17:14;16.90;;;7.33;;
11735;SDS011;5924;51.398;7.088;2023-12-07T14:19:41;12.03;;;7.90;;
11735;SDS011;5924;51.398;7.088;2023-12-07T14:22:07;9.90;;;7.00;;
11735;SDS011;5924;51.398;7.088;2023-12-07T14:24:34;8.17;;;7.37;;
11735;SDS011;5924;51.398;7.088;2023-12-07T14:27:01;9.73;;;8.30;;
11735;SDS011;5924;51.398;7.088;2023-12-07T14:29:28;9.97;;;7.97;;
11735;SDS011;5924;51.398;7.088;2023-12-07T14:31:55;18.10;;;8.63;;
11735;SDS011;5924;51.398;7.088;2023-12-07T14:34:20;7.57;;;6.87;;
11735;SDS011;5924;51.398;7.088;2023-12-07T14:36:46;8.40;;;7.20;;